Newville, Pennsylvania
Current Conditions -  °F | °C
As of 9:56 PM on Friday 19 Dec 2014 (Local Time) from KCXY Reporting Station
Scattered Clouds Scattered Clouds  
Wind Chill: 24°   Ceiling: Unl
Heat Index: 31°   Visibility: 10mi
Dew Point: 20°   Wind: 7mph
Humidity: 64%   Direction: 280°W
Pressure: 30.23"   Gusts: NA
Location:  40.17°N, 77.4°W
Report Text: KCXY 200256Z AUTO 28006KT 10SM SCT038 M01/M07 A3023 RMK AO2 SLP240 T10061067 53016
Loading
Personal Weather Stations






























Interactive Weather Map New forecast layout! Learn more

10-Day Weather Forecast

Advertisements
Track Severe Weather on mobile